sensor_id;sensor_type;location;lat;lon;timestamp;pressure;altitude;pressure_sealevel;temperature;humidity
46642;BME280;32370;41.864;-88.124;2022-12-17T00:01:16;97955.12;;;-3.51;72.23
46642;BME280;32370;41.864;-88.124;2022-12-17T00:03:44;97947.97;;;-3.42;72.86
46642;BME280;32370;41.864;-88.124;2022-12-17T00:06:12;97949.82;;;-3.36;71.81
46642;BME280;32370;41.864;-88.124;2022-12-17T00:08:40;97951.04;;;-3.59;71.67
46642;BME280;32370;41.864;-88.124;2022-12-17T00:11:08;97949.90;;;-3.40;70.93
46642;BME280;32370;41.864;-88.124;2022-12-17T00:13:36;97945.05;;;-3.78;71.86
46642;BME280;32370;41.864;-88.124;2022-12-17T00:16:04;97946.28;;;-3.39;71.68
46642;BME280;32370;41.864;-88.124;2022-12-17T00:18:33;97951.26;;;-3.46;70.95
46642;BME280;32370;41.864;-88.124;2022-12-17T00:21:01;97955.36;;;-3.47;71.72
46642;BME280;32370;41.864;-88.124;2022-12-17T00:23:29;97954.34;;;-3.29;72.32
46642;BME280;32370;41.864;-88.124;2022-12-17T00:25:57;97955.08;;;-3.40;71.78
46642;BME280;32370;41.864;-88.124;2022-12-17T00:28:25;97951.37;;;-3.54;72.32
46642;BME280;32370;41.864;-88.124;2022-12-17T00:30:53;97950.34;;;-3.55;72.07
46642;BME280;32370;41.864;-88.124;2022-12-17T00:33:21;97954.88;;;-3.69;72.38
46642;BME280;32370;41.864;-88.124;2022-12-17T00:35:51;97950.47;;;-3.56;71.95
46642;BME280;32370;41.864;-88.124;2022-12-17T00:38:19;97951.41;;;-3.08;72.05
46642;BME280;32370;41.864;-88.124;2022-12-17T00:40:50;97948.20;;;-3.20;72.44
46642;BME280;32370;41.864;-88.124;2022-12-17T00:43:18;97950.74;;;-3.14;72.63
46642;BME280;32370;41.864;-88.124;2022-12-17T00:45:47;97953.29;;;-4.11;73.29
46642;BME280;32370;41.864;-88.124;2022-12-17T00:48:15;97950.84;;;-3.86;74.09
46642;BME280;32370;41.864;-88.124;2022-12-17T00:50:44;97951.81;;;-3.69;74.25
46642;BME280;32370;41.864;-88.124;2022-12-17T00:53:12;97954.85;;;-3.35;73.52
46642;BME280;32370;41.864;-88.124;2022-12-17T00:55:40;97951.90;;;-3.37;73.64
46642;BME280;32370;41.864;-88.124;2022-12-17T00:58:09;97956.61;;;-3.44;73.28
46642;BME280;32370;41.864;-88.124;2022-12-17T01:00:37;97940.15;;;-3.36;73.45
46642;BME280;32370;41.864;-88.124;2022-12-17T01:03:09;97940.21;;;-3.44;74.07
46642;BME280;32370;41.864;-88.124;2022-12-17T01:05:38;97939.00;;;-3.67;74.95
46642;BME280;32370;41.864;-88.124;2022-12-17T01:08:07;97937.57;;;-3.49;75.20
46642;BME280;32370;41.864;-88.124;2022-12-17T01:10:35;97936.92;;;-3.41;75.73
46642;BME280;32370;41.864;-88.124;2022-12-17T01:13:03;97934.81;;;-3.64;76.57
46642;BME280;32370;41.864;-88.124;2022-12-17T01:15:31;97933.24;;;-3.75;76.94
46642;BME280;32370;41.864;-88.124;2022-12-17T01:18:00;97937.87;;;-3.86;77.99
46642;BME280;32370;41.864;-88.124;2022-12-17T01:20:28;97941.76;;;-4.10;78.30
46642;BME280;32370;41.864;-88.124;2022-12-17T01:22:56;97940.44;;;-3.76;78.94
46642;BME280;32370;41.864;-88.124;2022-12-17T01:25:24;97934.95;;;-4.00;80.32
46642;BME280;32370;41.864;-88.124;2022-12-17T01:27:52;97939.23;;;-4.30;81.40
46642;BME280;32370;41.864;-88.124;2022-12-17T01:30:20;97942.59;;;-4.50;82.33
46642;BME280;32370;41.864;-88.124;2022-12-17T01:32:48;97938.02;;;-3.77;81.56
46642;BME280;32370;41.864;-88.124;2022-12-17T01:35:16;97936.54;;;-4.09;81.88
46642;BME280;32370;41.864;-88.124;2022-12-17T01:37:44;97934.85;;;-3.82;81.74
46642;BME280;32370;41.864;-88.124;2022-12-17T01:40:14;97938.48;;;-3.66;81.21
46642;BME280;32370;41.864;-88.124;2022-12-17T01:42:44;97938.34;;;-3.87;81.62
46642;BME280;32370;41.864;-88.124;2022-12-17T01:45:13;97940.42;;;-4.04;82.41
46642;BME280;32370;41.864;-88.124;2022-12-17T01:47:45;97937.70;;;-3.79;81.66
46642;BME280;32370;41.864;-88.124;2022-12-17T01:50:16;97938.78;;;-3.69;81.34
46642;BME280;32370;41.864;-88.124;2022-12-17T01:52:44;97938.23;;;-3.80;81.63
46642;BME280;32370;41.864;-88.124;2022-12-17T01:55:12;97940.89;;;-3.74;81.69
46642;BME280;32370;41.864;-88.124;2022-12-17T01:57:40;97942.76;;;-3.79;81.68
46642;BME280;32370;41.864;-88.124;2022-12-17T02:00:13;97941.10;;;-3.56;81.39
46642;BME280;32370;41.864;-88.124;2022-12-17T02:02:41;97939.25;;;-3.80;82.01
46642;BME280;32370;41.864;-88.124;2022-12-17T02:05:10;97939.78;;;-3.79;82.20
46642;BME280;32370;41.864;-88.124;2022-12-17T02:07:47;97949.16;;;-4.05;82.14
46642;BME280;32370;41.864;-88.124;2022-12-17T02:10:22;97944.52;;;-3.98;82.74
46642;BME280;32370;41.864;-88.124;2022-12-17T02:12:54;97942.93;;;-3.96;82.27
46642;BME280;32370;41.864;-88.124;2022-12-17T02:15:29;97944.39;;;-3.69;82.11
46642;BME280;32370;41.864;-88.124;2022-12-17T02:18:03;97944.03;;;-3.67;81.18
46642;BME280;32370;41.864;-88.124;2022-12-17T02:20:37;97954.70;;;-4.00;81.59
46642;BME280;32370;41.864;-88.124;2022-12-17T02:23:14;97945.18;;;-3.79;81.70
46642;BME280;32370;41.864;-88.124;2022-12-17T02:25:49;97950.25;;;-4.73;82.34
46642;BME280;32370;41.864;-88.124;2022-12-17T02:28:20;97950.12;;;-4.29;84.43
46642;BME280;32370;41.864;-88.124;2022-12-17T02:30:49;97950.13;;;-4.61;84.58
46642;BME280;32370;41.864;-88.124;2022-12-17T02:33:17;97953.45;;;-4.39;84.10
46642;BME280;32370;41.864;-88.124;2022-12-17T02:35:51;97953.55;;;-4.25;83.52
46642;BME280;32370;41.864;-88.124;2022-12-17T02:38:22;97954.28;;;-3.94;84.03
46642;BME280;32370;41.864;-88.124;2022-12-17T02:40:51;97947.44;;;-4.15;83.84
46642;BME280;32370;41.864;-88.124;2022-12-17T02:43:19;97951.94;;;-4.13;84.36
46642;BME280;32370;41.864;-88.124;2022-12-17T02:45:52;97954.84;;;-4.48;87.20
46642;BME280;32370;41.864;-88.124;2022-12-17T02:48:20;97954.52;;;-4.53;86.95
46642;BME280;32370;41.864;-88.124;2022-12-17T02:50:49;97958.87;;;-4.61;87.51
46642;BME280;32370;41.864;-88.124;2022-12-17T02:53:19;97959.85;;;-4.19;87.61
46642;BME280;32370;41.864;-88.124;2022-12-17T02:55:47;97962.34;;;-4.34;86.99
46642;BME280;32370;41.864;-88.124;2022-12-17T02:58:15;97956.65;;;-5.59;88.55
46642;BME280;32370;41.864;-88.124;2022-12-17T03:00:43;97956.53;;;-5.22;89.97
46642;BME280;32370;41.864;-88.124;2022-12-17T03:03:11;97956.39;;;-4.73;88.72
46642;BME280;32370;41.864;-88.124;2022-12-17T03:05:39;97953.36;;;-4.82;87.36
46642;BME280;32370;41.864;-88.124;2022-12-17T03:08:08;97943.95;;;-4.53;87.16
46642;BME280;32370;41.864;-88.124;2022-12-17T03:10:36;97947.66;;;-4.43;85.71
46642;BME280;32370;41.864;-88.124;2022-12-17T03:13:04;97946.39;;;-4.93;85.22
46642;BME280;32370;41.864;-88.124;2022-12-17T03:15:32;97942.49;;;-5.19;83.67
46642;BME280;32370;41.864;-88.124;2022-12-17T03:18:00;97944.77;;;-4.90;84.38
46642;BME280;32370;41.864;-88.124;2022-12-17T03:20:28;97944.13;;;-4.56;84.08
46642;BME280;32370;41.864;-88.124;2022-12-17T03:23:02;97944.86;;;-5.01;83.69
46642;BME280;32370;41.864;-88.124;2022-12-17T03:25:30;97950.09;;;-5.48;83.31
46642;BME280;32370;41.864;-88.124;2022-12-17T03:28:03;97941.52;;;-4.95;83.56
46642;BME280;32370;41.864;-88.124;2022-12-17T03:30:31;97950.67;;;-4.96;82.94
46642;BME280;32370;41.864;-88.124;2022-12-17T03:32:59;97957.27;;;-4.75;82.65
46642;BME280;32370;41.864;-88.124;2022-12-17T03:35:27;97958.29;;;-4.79;82.19
46642;BME280;32370;41.864;-88.124;2022-12-17T03:37:55;97951.19;;;-4.37;82.03
46642;BME280;32370;41.864;-88.124;2022-12-17T03:40:23;97954.45;;;-5.07;81.83
46642;BME280;32370;41.864;-88.124;2022-12-17T03:42:51;97957.12;;;-4.79;81.46
46642;BME280;32370;41.864;-88.124;2022-12-17T03:45:19;97953.97;;;-5.07;81.00
46642;BME280;32370;41.864;-88.124;2022-12-17T03:47:47;97956.17;;;-4.72;80.65
46642;BME280;32370;41.864;-88.124;2022-12-17T03:50:15;97953.62;;;-5.00;81.11
46642;BME280;32370;41.864;-88.124;2022-12-17T03:52:43;97962.92;;;-5.38;81.38
46642;BME280;32370;41.864;-88.124;2022-12-17T03:55:11;97959.63;;;-5.05;81.54
46642;BME280;32370;41.864;-88.124;2022-12-17T03:57:40;97958.49;;;-4.71;80.53
46642;BME280;32370;41.864;-88.124;2022-12-17T04:00:09;97963.25;;;-4.52;79.73
46642;BME280;32370;41.864;-88.124;2022-12-17T04:02:39;97963.50;;;-4.81;80.14
46642;BME280;32370;41.864;-88.124;2022-12-17T04:05:08;97962.47;;;-4.87;79.70
46642;BME280;32370;41.864;-88.124;2022-12-17T04:07:36;97964.33;;;-4.65;78.83
46642;BME280;32370;41.864;-88.124;2022-12-17T04:10:05;97960.64;;;-4.46;78.82
46642;BME280;32370;41.864;-88.124;2022-12-17T04:12:33;97956.30;;;-5.09;79.06
46642;BME280;32370;41.864;-88.124;2022-12-17T04:15:01;97961.43;;;-4.75;78.98
46642;BME280;32370;41.864;-88.124;2022-12-17T04:17:29;97963.41;;;-4.84;79.53
46642;BME280;32370;41.864;-88.124;2022-12-17T04:19:57;97956.81;;;-4.83;79.27
46642;BME280;32370;41.864;-88.124;2022-12-17T04:22:25;97953.97;;;-4.41;78.78
46642;BME280;32370;41.864;-88.124;2022-12-17T04:24:53;97952.02;;;-4.94;79.78
46642;BME280;32370;41.864;-88.124;2022-12-17T04:27:21;97948.44;;;-4.94;79.68
46642;BME280;32370;41.864;-88.124;2022-12-17T04:29:50;97949.02;;;-4.84;80.37
46642;BME280;32370;41.864;-88.124;2022-12-17T04:32:18;97949.32;;;-4.51;79.17
46642;BME280;32370;41.864;-88.124;2022-12-17T04:34:46;97954.28;;;-4.97;79.49
46642;BME280;32370;41.864;-88.124;2022-12-17T04:37:14;97955.88;;;-4.53;80.36
46642;BME280;32370;41.864;-88.124;2022-12-17T04:39:42;97952.31;;;-4.74;79.23
46642;BME280;32370;41.864;-88.124;2022-12-17T04:42:10;97956.90;;;-4.86;79.18
46642;BME280;32370;41.864;-88.124;2022-12-17T04:44:38;97953.75;;;-5.22;80.19
46642;BME280;32370;41.864;-88.124;2022-12-17T04:47:06;97951.63;;;-5.06;80.41
46642;BME280;32370;41.864;-88.124;2022-12-17T04:49:34;97960.24;;;-4.54;80.11
46642;BME280;32370;41.864;-88.124;2022-12-17T04:52:02;97950.63;;;-4.88;79.56
46642;BME280;32370;41.864;-88.124;2022-12-17T04:54:30;97950.97;;;-4.80;78.84
46642;BME280;32370;41.864;-88.124;2022-12-17T04:56:58;97949.39;;;-4.61;78.40
46642;BME280;32370;41.864;-88.124;2022-12-17T04:59:26;97947.81;;;-5.10;79.34
46642;BME280;32370;41.864;-88.124;2022-12-17T05:01:54;97955.53;;;-5.76;80.39
46642;BME280;32370;41.864;-88.124;2022-12-17T05:04:23;97953.77;;;-5.37;80.34
46642;BME280;32370;41.864;-88.124;2022-12-17T05:06:51;97945.74;;;-5.21;79.77
46642;BME280;32370;41.864;-88.124;2022-12-17T05:09:19;97945.35;;;-4.60;79.07
46642;BME280;32370;41.864;-88.124;2022-12-17T05:11:47;97941.83;;;-4.54;78.09
46642;BME280;32370;41.864;-88.124;2022-12-17T05:14:16;97946.09;;;-4.73;78.35
46642;BME280;32370;41.864;-88.124;2022-12-17T05:16:43;97939.48;;;-4.75;78.84
46642;BME280;32370;41.864;-88.124;2022-12-17T05:19:12;97941.04;;;-5.59;79.01
46642;BME280;32370;41.864;-88.124;2022-12-17T05:21:40;97936.95;;;-4.77;79.17
46642;BME280;32370;41.864;-88.124;2022-12-17T05:24:08;97935.46;;;-4.36;78.17
46642;BME280;32370;41.864;-88.124;2022-12-17T05:26:36;97937.25;;;-5.06;79.33
46642;BME280;32370;41.864;-88.124;2022-12-17T05:29:04;97935.74;;;-5.08;78.94
46642;BME280;32370;41.864;-88.124;2022-12-17T05:31:32;97932.80;;;-4.92;78.20
46642;BME280;32370;41.864;-88.124;2022-12-17T05:34:00;97938.23;;;-5.42;77.88
46642;BME280;32370;41.864;-88.124;2022-12-17T05:36:28;97934.26;;;-4.95;77.68
46642;BME280;32370;41.864;-88.124;2022-12-17T05:38:56;97934.03;;;-4.74;77.42
46642;BME280;32370;41.864;-88.124;2022-12-17T05:41:24;97930.27;;;-5.27;77.78
46642;BME280;32370;41.864;-88.124;2022-12-17T05:43:52;97928.50;;;-5.18;78.39
46642;BME280;32370;41.864;-88.124;2022-12-17T05:46:20;97933.87;;;-5.59;79.09
46642;BME280;32370;41.864;-88.124;2022-12-17T05:48:48;97931.34;;;-4.94;79.04
46642;BME280;32370;41.864;-88.124;2022-12-17T05:51:17;97935.10;;;-4.75;77.66
46642;BME280;32370;41.864;-88.124;2022-12-17T05:53:45;97936.23;;;-5.23;76.81
46642;BME280;32370;41.864;-88.124;2022-12-17T05:56:13;97934.95;;;-4.96;76.86
46642;BME280;32370;41.864;-88.124;2022-12-17T05:58:41;97928.60;;;-5.29;78.53
46642;BME280;32370;41.864;-88.124;2022-12-17T06:01:09;97918.73;;;-5.26;77.92
46642;BME280;32370;41.864;-88.124;2022-12-17T06:03:38;97918.71;;;-4.51;77.64
46642;BME280;32370;41.864;-88.124;2022-12-17T06:06:07;97921.61;;;-4.42;77.27
46642;BME280;32370;41.864;-88.124;2022-12-17T06:08:35;97921.83;;;-4.73;76.74
46642;BME280;32370;41.864;-88.124;2022-12-17T06:11:04;97924.33;;;-4.62;77.00
46642;BME280;32370;41.864;-88.124;2022-12-17T06:13:31;97921.84;;;-4.82;76.92
46642;BME280;32370;41.864;-88.124;2022-12-17T06:16:00;97922.98;;;-4.38;76.07
46642;BME280;32370;41.864;-88.124;2022-12-17T06:18:28;97923.05;;;-4.86;76.61
46642;BME280;32370;41.864;-88.124;2022-12-17T06:20:56;97921.17;;;-4.57;76.99
46642;BME280;32370;41.864;-88.124;2022-12-17T06:23:24;97922.74;;;-5.01;77.57
46642;BME280;32370;41.864;-88.124;2022-12-17T06:25:52;97916.24;;;-4.41;77.03
46642;BME280;32370;41.864;-88.124;2022-12-17T06:28:20;97914.87;;;-4.70;77.68
46642;BME280;32370;41.864;-88.124;2022-12-17T06:30:50;97921.81;;;-4.86;77.69
46642;BME280;32370;41.864;-88.124;2022-12-17T06:33:18;97919.17;;;-4.85;77.24
46642;BME280;32370;41.864;-88.124;2022-12-17T06:35:46;97922.82;;;-4.64;77.71
46642;BME280;32370;41.864;-88.124;2022-12-17T06:38:14;97921.69;;;-4.71;77.51
46642;BME280;32370;41.864;-88.124;2022-12-17T06:40:42;97926.72;;;-4.97;77.47
46642;BME280;32370;41.864;-88.124;2022-12-17T06:43:10;97925.91;;;-4.55;77.96
46642;BME280;32370;41.864;-88.124;2022-12-17T06:45:38;97936.05;;;-5.31;78.48
46642;BME280;32370;41.864;-88.124;2022-12-17T06:48:07;97932.67;;;-4.89;78.39
46642;BME280;32370;41.864;-88.124;2022-12-17T06:50:35;97935.09;;;-5.04;78.73
46642;BME280;32370;41.864;-88.124;2022-12-17T06:53:05;97936.47;;;-4.86;78.69
46642;BME280;32370;41.864;-88.124;2022-12-17T06:55:33;97941.07;;;-4.37;78.05
46642;BME280;32370;41.864;-88.124;2022-12-17T06:58:01;97942.59;;;-4.95;78.12
46642;BME280;32370;41.864;-88.124;2022-12-17T07:00:29;97936.74;;;-4.44;77.65
46642;BME280;32370;41.864;-88.124;2022-12-17T07:02:57;97931.81;;;-4.34;77.59
46642;BME280;32370;41.864;-88.124;2022-12-17T07:05:25;97938.34;;;-4.57;77.07
46642;BME280;32370;41.864;-88.124;2022-12-17T07:07:56;97935.58;;;-4.37;77.69
46642;BME280;32370;41.864;-88.124;2022-12-17T07:10:25;97931.72;;;-5.15;78.66
46642;BME280;32370;41.864;-88.124;2022-12-17T07:12:53;97931.01;;;-4.78;78.72
46642;BME280;32370;41.864;-88.124;2022-12-17T07:15:21;97927.11;;;-4.92;79.51
46642;BME280;32370;41.864;-88.124;2022-12-17T07:17:57;97920.00;;;-5.05;79.52
46642;BME280;32370;41.864;-88.124;2022-12-17T07:20:25;97922.45;;;-4.80;79.55
46642;BME280;32370;41.864;-88.124;2022-12-17T07:22:54;97917.78;;;-4.36;79.12
46642;BME280;32370;41.864;-88.124;2022-12-17T07:25:22;97918.66;;;-4.19;78.61
46642;BME280;32370;41.864;-88.124;2022-12-17T07:27:52;97926.72;;;-4.45;78.65
46642;BME280;32370;41.864;-88.124;2022-12-17T07:30:21;97920.84;;;-4.19;78.86
46642;BME280;32370;41.864;-88.124;2022-12-17T07:32:58;97927.19;;;-4.54;78.59
46642;BME280;32370;41.864;-88.124;2022-12-17T07:35:25;97928.56;;;-4.65;79.38
46642;BME280;32370;41.864;-88.124;2022-12-17T07:37:58;97925.18;;;-4.52;78.97
46642;BME280;32370;41.864;-88.124;2022-12-17T07:40:26;97929.84;;;-4.88;79.65
46642;BME280;32370;41.864;-88.124;2022-12-17T07:42:54;97931.84;;;-5.09;78.87
46642;BME280;32370;41.864;-88.124;2022-12-17T07:45:22;97931.79;;;-4.78;79.53
46642;BME280;32370;41.864;-88.124;2022-12-17T07:47:51;97933.77;;;-4.37;79.14
46642;BME280;32370;41.864;-88.124;2022-12-17T07:50:20;97939.59;;;-5.21;79.96
46642;BME280;32370;41.864;-88.124;2022-12-17T07:52:57;97940.23;;;-4.78;79.57
46642;BME280;32370;41.864;-88.124;2022-12-17T07:55:24;97941.09;;;-4.77;79.47
46642;BME280;32370;41.864;-88.124;2022-12-17T07:57:58;97942.57;;;-4.85;79.14
46642;BME280;32370;41.864;-88.124;2022-12-17T08:00:26;97942.79;;;-4.60;79.48
46642;BME280;32370;41.864;-88.124;2022-12-17T08:02:56;97946.80;;;-4.81;79.53
46642;BME280;32370;41.864;-88.124;2022-12-17T08:05:25;97950.35;;;-5.07;80.33
46642;BME280;32370;41.864;-88.124;2022-12-17T08:07:54;97955.77;;;-4.92;81.09
46642;BME280;32370;41.864;-88.124;2022-12-17T08:10:23;97957.38;;;-5.45;81.11
46642;BME280;32370;41.864;-88.124;2022-12-17T08:12:54;97961.01;;;-4.84;81.35
46642;BME280;32370;41.864;-88.124;2022-12-17T08:15:23;97959.20;;;-5.37;81.90
46642;BME280;32370;41.864;-88.124;2022-12-17T08:17:51;97955.25;;;-5.12;82.19
46642;BME280;32370;41.864;-88.124;2022-12-17T08:20:19;97953.78;;;-5.05;81.68
46642;BME280;32370;41.864;-88.124;2022-12-17T08:22:47;97957.77;;;-5.27;82.90
46642;BME280;32370;41.864;-88.124;2022-12-17T08:25:15;97952.79;;;-5.02;82.58
46642;BME280;32370;41.864;-88.124;2022-12-17T08:27:43;97955.80;;;-4.83;82.14
46642;BME280;32370;41.864;-88.124;2022-12-17T08:30:12;97945.35;;;-4.95;81.82
46642;BME280;32370;41.864;-88.124;2022-12-17T08:32:39;97948.12;;;-5.22;82.49
46642;BME280;32370;41.864;-88.124;2022-12-17T08:35:08;97954.65;;;-5.13;82.91
46642;BME280;32370;41.864;-88.124;2022-12-17T08:37:35;97948.18;;;-5.05;82.55
46642;BME280;32370;41.864;-88.124;2022-12-17T08:40:04;97952.52;;;-5.23;82.28
46642;BME280;32370;41.864;-88.124;2022-12-17T08:42:32;97952.77;;;-5.37;82.57
46642;BME280;32370;41.864;-88.124;2022-12-17T08:45:00;97960.04;;;-5.23;82.66
46642;BME280;32370;41.864;-88.124;2022-12-17T08:47:29;97952.66;;;-5.22;83.00
46642;BME280;32370;41.864;-88.124;2022-12-17T08:49:57;97949.10;;;-4.86;81.88
46642;BME280;32370;41.864;-88.124;2022-12-17T08:52:25;97949.39;;;-4.90;81.70
46642;BME280;32370;41.864;-88.124;2022-12-17T08:54:53;97950.43;;;-4.58;81.94
46642;BME280;32370;41.864;-88.124;2022-12-17T08:57:21;97950.32;;;-5.42;82.58
46642;BME280;32370;41.864;-88.124;2022-12-17T08:59:49;97951.24;;;-4.75;81.73
46642;BME280;32370;41.864;-88.124;2022-12-17T09:02:17;97952.95;;;-4.80;82.39
46642;BME280;32370;41.864;-88.124;2022-12-17T09:04:45;97952.36;;;-5.19;81.67
46642;BME280;32370;41.864;-88.124;2022-12-17T09:07:13;97953.95;;;-4.76;81.70
46642;BME280;32370;41.864;-88.124;2022-12-17T09:09:42;97956.36;;;-4.63;81.42
46642;BME280;32370;41.864;-88.124;2022-12-17T09:12:10;97961.31;;;-4.70;81.74
46642;BME280;32370;41.864;-88.124;2022-12-17T09:14:38;97964.22;;;-4.99;82.32
46642;BME280;32370;41.864;-88.124;2022-12-17T09:17:06;97961.94;;;-5.19;82.38
46642;BME280;32370;41.864;-88.124;2022-12-17T09:19:34;97968.39;;;-5.31;81.49
46642;BME280;32370;41.864;-88.124;2022-12-17T09:22:02;97962.34;;;-5.05;81.73
46642;BME280;32370;41.864;-88.124;2022-12-17T09:24:30;97961.84;;;-4.68;81.25
46642;BME280;32370;41.864;-88.124;2022-12-17T09:26:59;97956.07;;;-4.78;81.25
46642;BME280;32370;41.864;-88.124;2022-12-17T09:29:27;97954.52;;;-4.97;80.89
46642;BME280;32370;41.864;-88.124;2022-12-17T09:31:56;97955.92;;;-5.90;82.35
46642;BME280;32370;41.864;-88.124;2022-12-17T09:34:24;97955.09;;;-5.12;82.05
46642;BME280;32370;41.864;-88.124;2022-12-17T09:36:52;97955.91;;;-5.32;83.25
46642;BME280;32370;41.864;-88.124;2022-12-17T09:39:20;97958.41;;;-5.59;84.20
46642;BME280;32370;41.864;-88.124;2022-12-17T09:41:55;97954.23;;;-5.29;83.27
46642;BME280;32370;41.864;-88.124;2022-12-17T09:44:30;97958.08;;;-4.89;82.17
46642;BME280;32370;41.864;-88.124;2022-12-17T09:47:05;97958.86;;;-4.70;82.07
46642;BME280;32370;41.864;-88.124;2022-12-17T09:49:37;97965.93;;;-4.64;81.83
46642;BME280;32370;41.864;-88.124;2022-12-17T09:52:16;97967.48;;;-5.42;81.60
46642;BME280;32370;41.864;-88.124;2022-12-17T09:54:48;97968.77;;;-4.98;81.65
46642;BME280;32370;41.864;-88.124;2022-12-17T09:57:22;97964.16;;;-5.99;85.16
46642;BME280;32370;41.864;-88.124;2022-12-17T09:59:52;97968.21;;;-5.27;84.49
46642;BME280;32370;41.864;-88.124;2022-12-17T10:02:23;97966.46;;;-5.31;83.34
46642;BME280;32370;41.864;-88.124;2022-12-17T10:04:52;97968.01;;;-4.76;82.78
46642;BME280;32370;41.864;-88.124;2022-12-17T10:07:22;97972.68;;;-5.23;82.92
46642;BME280;32370;41.864;-88.124;2022-12-17T10:09:53;97963.95;;;-5.05;82.91
46642;BME280;32370;41.864;-88.124;2022-12-17T10:12:21;97963.96;;;-4.82;82.27
46642;BME280;32370;41.864;-88.124;2022-12-17T10:14:49;97967.95;;;-4.94;82.70
46642;BME280;32370;41.864;-88.124;2022-12-17T10:17:19;97968.08;;;-5.35;82.65
46642;BME280;32370;41.864;-88.124;2022-12-17T10:19:50;97967.49;;;-4.95;82.02
46642;BME280;32370;41.864;-88.124;2022-12-17T10:22:20;97960.08;;;-4.63;81.25
46642;BME280;32370;41.864;-88.124;2022-12-17T10:24:48;97965.06;;;-4.60;80.75
46642;BME280;32370;41.864;-88.124;2022-12-17T10:27:18;97968.87;;;-5.14;80.96
46642;BME280;32370;41.864;-88.124;2022-12-17T10:29:46;97972.55;;;-4.75;81.20
46642;BME280;32370;41.864;-88.124;2022-12-17T10:34:26;97979.59;;;-5.14;83.72
46642;BME280;32370;41.864;-88.124;2022-12-17T10:36:54;97978.52;;;-5.31;84.92
46642;BME280;32370;41.864;-88.124;2022-12-17T10:39:23;97988.05;;;-5.14;83.97
46642;BME280;32370;41.864;-88.124;2022-12-17T10:41:52;97986.98;;;-5.73;85.44
46642;BME280;32370;41.864;-88.124;2022-12-17T10:44:22;97989.53;;;-5.08;84.66
46642;BME280;32370;41.864;-88.124;2022-12-17T10:46:59;97991.80;;;-5.12;84.17
46642;BME280;32370;41.864;-88.124;2022-12-17T10:49:28;97990.41;;;-4.97;83.97
46642;BME280;32370;41.864;-88.124;2022-12-17T10:52:00;97988.21;;;-4.93;83.27
46642;BME280;32370;41.864;-88.124;2022-12-17T10:54:29;97990.75;;;-4.89;82.86
46642;BME280;32370;41.864;-88.124;2022-12-17T10:57:01;97996.15;;;-4.66;82.59
46642;BME280;32370;41.864;-88.124;2022-12-17T10:59:32;98000.62;;;-4.94;82.61
46642;BME280;32370;41.864;-88.124;2022-12-17T11:02:08;98004.06;;;-4.97;82.99
46642;BME280;32370;41.864;-88.124;2022-12-17T11:04:50;98000.33;;;-4.59;83.15
46642;BME280;32370;41.864;-88.124;2022-12-17T11:07:22;98001.66;;;-5.13;83.23
46642;BME280;32370;41.864;-88.124;2022-12-17T11:09:54;97996.74;;;-4.60;82.44
46642;BME280;32370;41.864;-88.124;2022-12-17T11:12:30;98002.68;;;-5.49;83.41
46642;BME280;32370;41.864;-88.124;2022-12-17T11:15:06;98003.64;;;-4.90;83.11
46642;BME280;32370;41.864;-88.124;2022-12-17T11:17:40;98005.79;;;-4.78;82.53
46642;BME280;32370;41.864;-88.124;2022-12-17T11:20:20;98001.27;;;-4.49;82.05
46642;BME280;32370;41.864;-88.124;2022-12-17T11:22:51;98002.44;;;-5.21;82.22
46642;BME280;32370;41.864;-88.124;2022-12-17T11:25:36;98005.97;;;-5.23;82.86
46642;BME280;32370;41.864;-88.124;2022-12-17T11:28:13;98008.58;;;-5.47;82.57
46642;BME280;32370;41.864;-88.124;2022-12-17T11:30:48;98008.17;;;-5.10;82.76
46642;BME280;32370;41.864;-88.124;2022-12-17T11:33:20;98009.23;;;-4.85;82.25
46642;BME280;32370;41.864;-88.124;2022-12-17T11:35:55;98004.87;;;-5.50;82.41
46642;BME280;32370;41.864;-88.124;2022-12-17T11:38:33;97999.45;;;-5.63;83.06
46642;BME280;32370;41.864;-88.124;2022-12-17T11:41:10;97999.28;;;-5.99;83.81
46642;BME280;32370;41.864;-88.124;2022-12-17T11:43:45;98002.27;;;-5.58;83.05
46642;BME280;32370;41.864;-88.124;2022-12-17T11:46:26;98001.48;;;-5.53;82.56
46642;BME280;32370;41.864;-88.124;2022-12-17T11:49:03;98003.08;;;-5.89;81.77
46642;BME280;32370;41.864;-88.124;2022-12-17T11:51:40;98006.37;;;-5.81;82.40
46642;BME280;32370;41.864;-88.124;2022-12-17T11:54:19;98008.66;;;-5.12;81.37
46642;BME280;32370;41.864;-88.124;2022-12-17T11:57:00;98010.87;;;-5.33;81.20
46642;BME280;32370;41.864;-88.124;2022-12-17T11:59:33;98009.57;;;-5.19;80.97
46642;BME280;32370;41.864;-88.124;2022-12-17T12:02:12;98011.76;;;-5.80;82.19
46642;BME280;32370;41.864;-88.124;2022-12-17T12:04:57;98015.66;;;-5.28;81.92
46642;BME280;32370;41.864;-88.124;2022-12-17T12:07:33;98019.23;;;-5.78;82.81
46642;BME280;32370;41.864;-88.124;2022-12-17T12:10:13;98017.34;;;-5.58;82.70
46642;BME280;32370;41.864;-88.124;2022-12-17T12:12:53;98020.56;;;-5.86;81.54
46642;BME280;32370;41.864;-88.124;2022-12-17T12:15:28;98026.78;;;-5.52;81.54
46642;BME280;32370;41.864;-88.124;2022-12-17T12:18:02;98015.78;;;-5.69;81.90
46642;BME280;32370;41.864;-88.124;2022-12-17T12:21:01;98018.44;;;-5.96;81.41
46642;BME280;32370;41.864;-88.124;2022-12-17T12:23:41;98022.28;;;-5.81;81.38
46642;BME280;32370;41.864;-88.124;2022-12-17T12:26:14;98024.93;;;-5.61;81.53
46642;BME280;32370;41.864;-88.124;2022-12-17T12:28:46;98022.23;;;-5.77;81.00
46642;BME280;32370;41.864;-88.124;2022-12-17T12:31:26;98025.44;;;-5.70;81.55
46642;BME280;32370;41.864;-88.124;2022-12-17T12:33:59;98031.25;;;-5.53;81.17
46642;BME280;32370;41.864;-88.124;2022-12-17T12:36:30;98041.75;;;-5.56;80.83
46642;BME280;32370;41.864;-88.124;2022-12-17T12:38:58;98040.92;;;-5.27;80.42
46642;BME280;32370;41.864;-88.124;2022-12-17T12:41:33;98047.13;;;-5.57;80.43
46642;BME280;32370;41.864;-88.124;2022-12-17T12:44:11;98051.80;;;-6.46;81.85
46642;BME280;32370;41.864;-88.124;2022-12-17T12:46:48;98052.12;;;-6.54;84.71
46642;BME280;32370;41.864;-88.124;2022-12-17T12:49:23;98051.90;;;-6.27;85.63
46642;BME280;32370;41.864;-88.124;2022-12-17T12:51:53;98046.38;;;-6.23;85.46
46642;BME280;32370;41.864;-88.124;2022-12-17T12:54:27;98051.98;;;-6.22;84.72
46642;BME280;32370;41.864;-88.124;2022-12-17T12:56:54;98055.17;;;-6.48;84.77